Time;durP1;ratioP1;P1;durP2;ratioP2;P2;SDS_P1;SDS_P2;PMS_P1;PMS_P2;Temp;Humidity;BMP_temperature;BMP_pressure;BME280_temperature;BME280_humidity;BME280_pressure;Samples;Min_cycle;Max_cycle;Signal;HPM_P1;HPM_P2
2022/06/20 00:02:03;;;;;;;12.03;6.50;;;;;;;16.92;100.00;100276.41;1697706;82;20960;-59
2022/06/20 00:04:32;;;;;;;10.60;6.73;;;;;;;16.83;100.00;100279.08;1700747;84;21091;-57
2022/06/20 00:07:01;;;;;;;10.53;6.90;;;;;;;16.74;100.00;100279.88;1674336;84;20993;-64
2022/06/20 00:09:28;;;;;;;10.80;7.00;;;;;;;16.65;100.00;100278.56;1700105;84;21152;-56
2022/06/20 00:11:56;;;;;;;10.33;6.40;;;;;;;16.61;100.00;100276.88;1700284;82;20991;-58
2022/06/20 00:14:23;;;;;;;8.20;6.50;;;;;;;16.57;100.00;100271.77;1700945;84;21013;-58
2022/06/20 00:16:53;;;;;;;11.30;6.20;;;;;;;16.53;100.00;100275.88;1701128;84;21597;-58
2022/06/20 00:19:21;;;;;;;8.43;5.67;;;;;;;16.49;100.00;100284.72;1699430;82;21343;-58
2022/06/20 00:21:48;;;;;;;13.33;6.60;;;;;;;16.48;100.00;100283.12;1701758;82;21394;-58
2022/06/20 00:24:16;;;;;;;10.50;6.17;;;;;;;16.47;100.00;100282.81;1701124;82;21054;-58
2022/06/20 00:26:43;;;;;;;9.73;6.13;;;;;;;16.48;100.00;100287.59;1665131;85;21014;-58
2022/06/20 00:29:11;;;;;;;9.47;6.77;;;;;;;16.49;100.00;100285.23;1637946;86;20992;-59
2022/06/20 00:31:38;;;;;;;10.70;6.70;;;;;;;16.45;100.00;100278.81;1637560;87;21942;-57
2022/06/20 00:34:05;;;;;;;11.87;5.87;;;;;;;16.41;100.00;100279.77;1638137;87;21285;-59
2022/06/20 00:36:33;;;;;;;8.83;6.33;;;;;;;16.40;100.00;100277.34;1637304;86;21043;-58
2022/06/20 00:39:01;;;;;;;10.33;6.90;;;;;;;16.39;100.00;100270.48;1638039;86;21109;-58
2022/06/20 00:41:33;;;;;;;12.17;7.57;;;;;;;16.36;100.00;100269.59;1662764;84;21486;-58
2022/06/20 00:44:01;;;;;;;12.10;7.27;;;;;;;16.30;100.00;100269.47;1668043;85;21602;-58
2022/06/20 00:46:34;;;;;;;11.47;6.70;;;;;;;16.22;100.00;100265.82;1637367;85;21572;-58
2022/06/20 00:49:09;;;;;;;11.40;6.03;;;;;;;16.20;100.00;100261.80;1648617;85;21075;-65
2022/06/20 00:51:53;;;;;;;11.40;6.50;;;;;;;16.13;100.00;100255.28;1636467;86;21076;-57
2022/06/20 00:54:42;;;;;;;8.67;5.43;;;;;;;16.10;100.00;100255.75;1647085;86;21104;-58
2022/06/20 00:57:25;;;;;;;8.50;5.60;;;;;;;16.04;100.00;100260.04;1651015;85;21926;-57
2022/06/20 01:00:12;;;;;;;6.67;4.57;;;;;;;16.05;100.00;100256.89;1651026;86;21272;-56
2022/06/20 01:02:43;;;;;;;7.77;4.50;;;;;;;16.02;100.00;100260.78;1651405;85;22088;-58
2022/06/20 01:05:17;;;;;;;;;;;;;;;16.03;100.00;100255.02;1664328;85;21135;-56
2022/06/20 01:07:58;;;;;;;6.77;4.77;;;;;;;16.07;100.00;100260.13;1658931;86;20448;-56
2022/06/20 01:10:26;;;;;;;8.45;5.83;;;;;;;16.03;100.00;100258.44;1660940;86;21172;-57
2022/06/20 01:13:04;;;;;;;7.63;5.60;;;;;;;16.00;100.00;100260.70;1660041;85;21428;-55
2022/06/20 01:15:37;;;;;;;7.23;4.03;;;;;;;15.95;100.00;100257.93;1668205;85;21071;-59
2022/06/20 01:18:07;;;;;;;6.03;4.40;;;;;;;15.93;100.00;100264.70;1637512;87;21005;-60
2022/06/20 01:20:36;;;;;;;6.17;4.25;;;;;;;15.95;100.00;100269.77;1668693;84;21081;-56
2022/06/20 01:23:11;;;;;;;6.03;4.50;;;;;;;16.00;100.00;100267.27;1638176;86;21120;-57
2022/06/20 01:26:01;;;;;;;6.17;4.37;;;;;;;16.04;100.00;100268.44;1665458;85;21226;-57
2022/06/20 01:28:33;;;;;;;4.95;4.17;;;;;;;16.05;100.00;100267.41;1622109;87;21850;-56
2022/06/20 01:31:00;;;;;;;6.03;3.60;;;;;;;16.12;100.00;100278.66;1666639;84;21118;-59
2022/06/20 01:33:27;;;;;;;5.07;4.10;;;;;;;16.23;100.00;100271.88;1629368;86;21910;-55
2022/06/20 01:38:41;;;;;;;6.00;4.40;;;;;;;16.27;100.00;100270.41;1631064;87;21198;-63
2022/06/20 01:43:54;;;;;;;7.57;4.70;;;;;;;16.27;100.00;100279.10;1639620;87;21105;-56
2022/06/20 01:46:22;;;;;;;5.83;4.10;;;;;;;16.29;100.00;100278.39;1639373;87;21755;-63
2022/06/20 01:48:52;;;;;;;5.77;4.00;;;;;;;16.32;100.00;100277.13;1667510;85;21086;-56
2022/06/20 01:51:23;;;;;;;5.57;3.87;;;;;;;16.39;100.00;100279.17;1636933;87;21712;-57
2022/06/20 01:53:51;;;;;;;6.70;3.98;;;;;;;16.45;100.00;100276.19;1668415;85;21023;-56
2022/06/20 01:56:18;;;;;;;5.47;4.17;;;;;;;16.49;100.00;100279.46;1639827;87;21027;-56
2022/06/20 01:58:57;;;;;;;6.00;4.13;;;;;;;16.61;100.00;100283.46;1667417;84;21098;-59
2022/06/20 02:01:24;;;;;;;5.43;3.70;;;;;;;16.88;100.00;100277.88;1637287;87;21913;-57
2022/06/20 02:03:51;;;;;;;5.70;3.50;;;;;;;17.25;100.00;100281.20;1667957;84;21132;-56
2022/06/20 02:06:18;;;;;;;4.93;4.00;;;;;;;17.72;100.00;100278.59;1662818;84;21089;-60
2022/06/20 02:08:53;;;;;;;5.10;3.73;;;;;;;18.12;100.00;100277.41;1696633;82;20992;-59
2022/06/20 02:11:27;;;;;;;6.43;4.10;;;;;;;18.53;100.00;100270.83;1697956;84;21974;-58
2022/06/20 02:13:59;;;;;;;6.27;3.90;;;;;;;18.95;100.00;100274.01;1697468;82;21051;-56
2022/06/20 02:16:26;;;;;;;4.37;3.50;;;;;;;19.44;100.00;100281.69;1685921;84;21896;-57
2022/06/20 02:18:57;;;;;;;8.30;3.83;;;;;;;19.93;100.00;100281.91;1697552;84;21428;-57
2022/06/20 02:21:26;;;;;;;6.73;4.73;;;;;;;20.43;100.00;100286.77;1671534;84;21040;-57
2022/06/20 02:23:57;;;;;;;5.30;3.67;;;;;;;20.87;100.00;100278.27;1698384;84;21637;-56
2022/06/20 02:26:24;;;;;;;4.40;3.33;;;;;;;21.41;100.00;100283.25;1696763;82;20999;-58
2022/06/20 02:29:03;;;;;;;5.20;3.50;;;;;;;21.89;100.00;100281.42;1697921;82;21271;-58
2022/06/20 02:31:30;;;;;;;4.50;3.17;;;;;;;22.45;100.00;100278.52;1699401;84;21071;-57
2022/06/20 02:33:58;;;;;;;5.77;3.20;;;;;;;23.04;100.00;100289.31;1698524;83;21076;-65
2022/06/20 02:36:26;;;;;;;4.40;3.30;;;;;;;23.61;100.00;100292.75;1697485;84;21695;-57
2022/06/20 02:38:53;;;;;;;6.33;3.50;;;;;;;24.18;100.00;100287.03;1698537;84;21154;-60
2022/06/20 02:41:22;;;;;;;5.00;3.70;;;;;;;24.74;100.00;100283.32;1670875;82;21175;-57
2022/06/20 02:43:55;;;;;;;5.53;3.80;;;;;;;25.22;100.00;100286.97;1696982;82;21102;-59
2022/06/20 02:46:25;;;;;;;5.47;3.93;;;;;;;25.57;100.00;100290.94;1697966;82;21114;-57
2022/06/20 02:48:54;;;;;;;5.83;4.23;;;;;;;26.04;100.00;100293.42;1697950;84;21094;-57
2022/06/20 02:51:26;;;;;;;6.53;4.62;;;;;;;26.43;100.00;100292.64;1696561;84;21097;-57
2022/06/20 02:53:58;;;;;;;;;;;;;;;26.91;100.00;100289.86;1672819;84;21309;-58
2022/06/20 02:56:28;;;;;;;4.87;3.90;;;;;;;27.45;95.57;100300.27;1696555;84;20202;-58
2022/06/20 02:59:05;;;;;;;4.70;3.50;;;;;;;27.90;88.93;100293.30;1698495;82;21576;-57
2022/06/20 03:01:49;;;;;;;6.65;3.42;;;;;;;28.27;82.92;100290.95;1687004;84;20969;-57
2022/06/20 03:04:16;;;;;;;9.28;4.67;;;;;;;28.66;75.58;100296.30;1698661;82;21183;-57
2022/06/20 03:06:48;;;;;;;6.78;5.15;;;;;;;28.94;70.44;100292.95;1697594;82;22602;-57
2022/06/20 03:09:16;;;;;;;7.30;4.75;;;;;;;29.17;66.33;100295.13;1696007;82;21027;-58
2022/06/20 03:11:43;;;;;;;6.95;4.95;;;;;;;29.37;63.29;100297.84;1698914;84;21043;-57
2022/06/20 03:14:14;;;;;;;11.35;4.90;;;;;;;29.52;61.92;100306.06;1696013;83;21092;-58
2022/06/20 03:16:41;;;;;;;8.13;4.37;;;;;;;29.80;60.98;100310.16;1699178;84;21121;-65
2022/06/20 03:19:19;;;;;;;5.95;4.53;;;;;;;30.19;59.33;100300.52;1696692;82;21482;-57
2022/06/20 03:21:47;;;;;;;5.50;4.40;;;;;;;30.61;57.83;100299.53;1697618;84;20952;-57
2022/06/20 03:24:17;;;;;;;5.37;4.10;;;;;;;31.12;55.16;100302.53;1697575;84;21326;-57
2022/06/20 03:26:44;;;;;;;6.72;4.47;;;;;;;31.46;53.74;100303.02;1696810;84;21514;-64
2022/06/20 03:29:16;;;;;;;5.08;3.87;;;;;;;31.89;52.08;100302.86;1697351;84;21396;-56
2022/06/20 03:31:43;;;;;;;6.22;4.97;;;;;;;32.29;49.58;100297.65;1698408;84;21388;-57
2022/06/20 03:34:12;;;;;;;6.92;4.65;;;;;;;32.43;48.38;100295.52;1697671;84;21356;-57
2022/06/20 03:36:41;;;;;;;5.42;3.90;;;;;;;32.56;47.52;100296.36;1697388;82;20960;-57
2022/06/20 03:39:09;;;;;;;3.65;2.90;;;;;;;32.75;46.32;100297.23;1697715;84;20957;-57
2022/06/20 03:41:36;;;;;;;5.83;3.47;;;;;;;32.86;44.86;100292.45;1696279;84;21782;-64
2022/06/20 03:44:07;;;;;;;4.55;2.90;;;;;;;32.90;43.62;100289.31;1693149;82;21671;-58
2022/06/20 03:46:41;;;;;;;4.40;2.95;;;;;;;32.96;43.03;100286.42;1698818;82;21008;-57
2022/06/20 03:49:35;;;;;;;3.77;3.02;;;;;;;33.12;42.64;100290.88;1697637;82;21564;-59
2022/06/20 03:52:22;;;;;;;4.50;3.17;;;;;;;33.28;41.71;100284.83;1697918;82;22052;-57
2022/06/20 03:55:06;;;;;;;3.92;2.37;;;;;;;33.51;41.77;100286.00;1696510;84;21576;-57
2022/06/20 03:57:52;;;;;;;4.85;2.58;;;;;;;33.88;41.28;100284.09;1697050;84;21144;-57
2022/06/20 04:00:36;;;;;;;3.77;2.80;;;;;;;34.31;40.03;100290.02;1697846;84;21572;-59
2022/06/20 04:03:30;;;;;;;3.83;2.60;;;;;;;34.69;38.94;100287.45;1697817;82;21091;-56
2022/06/20 04:06:27;;;;;;;3.85;2.60;;;;;;;35.07;38.03;100293.73;1696445;82;21591;-59
2022/06/20 04:11:51;;;;;;;3.77;2.77;;;;;;;35.68;36.84;100295.25;1690238;84;21768;-56
2022/06/20 04:14:46;;;;;;;3.98;3.10;;;;;;;36.02;35.78;100290.45;1695771;82;21596;-63
2022/06/20 04:20:19;;;;;;;5.05;3.12;;;;;;;36.52;34.96;100281.23;1695177;82;21123;-56
2022/06/20 04:22:47;;;;;;;5.97;2.95;;;;;;;36.69;34.00;100276.73;1698340;84;21902;-58
2022/06/20 04:25:38;;;;;;;4.70;2.47;;;;;;;36.52;34.11;100283.40;1696086;84;21156;-58
2022/06/20 04:28:26;;;;;;;4.17;2.85;;;;;;;36.48;34.56;100285.26;1697439;82;21043;-65
2022/06/20 04:30:58;;;;;;;3.85;2.55;;;;;;;36.70;34.33;100278.87;1698427;82;21072;-57
2022/06/20 04:34:02;;;;;;;3.70;3.08;;;;;;;37.13;33.10;100275.61;1698266;84;21110;-57
2022/06/20 04:36:37;;;;;;;3.77;2.55;;;;;;;37.32;32.72;100279.62;1695233;84;21087;-57
2022/06/20 04:39:24;;;;;;;3.37;2.60;;;;;;;37.61;31.95;100275.42;1698379;82;21963;-56
2022/06/20 04:42:19;;;;;;;3.17;2.62;;;;;;;37.71;31.37;100275.39;1697072;84;21018;-57
2022/06/20 04:45:07;;;;;;;3.83;2.30;;;;;;;37.40;31.48;100274.50;1696708;84;21131;-57
2022/06/20 04:47:48;;;;;;;3.27;2.37;;;;;;;37.43;31.38;100274.36;1699057;84;21103;-56
2022/06/20 04:50:20;;;;;;;3.50;2.67;;;;;;;37.56;31.38;100269.53;1696321;82;21151;-61
2022/06/20 04:52:49;;;;;;;6.17;2.90;;;;;;;37.77;30.99;100271.18;1697313;84;21135;-65
2022/06/20 04:55:21;;;;;;;4.78;3.15;;;;;;;37.94;30.58;100269.33;1697041;84;21600;-57
2022/06/20 04:57:48;;;;;;;3.37;2.50;;;;;;;37.93;30.98;100273.79;1696934;83;21007;-57
2022/06/20 05:00:21;;;;;;;4.33;2.90;;;;;;;38.06;30.85;100272.98;1697085;83;21067;-64
2022/06/20 05:02:49;;;;;;;4.15;2.55;;;;;;;38.32;30.67;100272.14;1691567;84;21055;-64
2022/06/20 05:05:20;;;;;;;4.15;3.12;;;;;;;38.69;30.21;100272.98;1698814;84;21180;-57
2022/06/20 05:07:48;;;;;;;4.15;2.90;;;;;;;38.97;29.53;100273.66;1698670;84;21106;-59
2022/06/20 05:10:29;;;;;;;4.53;3.37;;;;;;;39.18;29.69;100273.86;1666181;84;21145;-57
2022/06/20 05:13:12;;;;;;;3.17;2.62;;;;;;;39.51;29.04;100277.05;1638076;86;21039;-58
2022/06/20 05:15:43;;;;;;;3.75;2.55;;;;;;;39.64;28.70;100273.45;1642678;84;21081;-64
2022/06/20 05:18:32;;;;;;;4.47;3.17;;;;;;;39.57;28.33;100273.40;1636689;87;21161;-58
2022/06/20 05:21:14;;;;;;;3.90;2.87;;;;;;;39.45;28.53;100270.98;1639814;85;21163;-58
2022/06/20 05:23:51;;;;;;;4.55;2.90;;;;;;;39.48;28.46;100264.77;1657712;85;21023;-57
2022/06/20 05:26:23;;;;;;;3.83;3.02;;;;;;;39.38;28.70;100265.67;1665338;85;21120;-64
2022/06/20 05:28:52;;;;;;;3.65;2.67;;;;;;;39.46;28.62;100254.81;1665766;85;21578;-57
2022/06/20 05:31:35;;;;;;;4.37;3.40;;;;;;;39.66;28.60;100258.24;1666285;85;21248;-64
2022/06/20 05:34:16;;;;;;;3.90;2.50;;;;;;;39.84;28.41;100263.84;1667149;84;21588;-64
2022/06/20 05:37:08;;;;;;;4.85;2.85;;;;;;;39.97;28.04;100255.31;1665607;85;21782;-59
2022/06/20 05:39:52;;;;;;;3.25;2.90;;;;;;;39.97;28.49;100255.31;1665688;84;21859;-58
2022/06/20 05:42:19;;;;;;;4.92;3.05;;;;;;;40.10;27.86;100247.78;1667611;84;21031;-61
2022/06/20 05:44:47;;;;;;;4.12;3.22;;;;;;;40.29;27.95;100242.61;1637894;87;22732;-57
2022/06/20 05:47:24;;;;;;;3.75;3.45;;;;;;;40.48;27.74;100242.86;1639773;85;21107;-61
2022/06/20 05:50:30;;;;;;;3.37;2.70;;;;;;;40.72;27.76;100241.95;1639999;87;21839;-57
2022/06/20 05:52:58;;;;;;;3.90;3.20;;;;;;;40.85;27.15;100239.83;1634771;87;21020;-56
2022/06/20 05:55:30;;;;;;;3.25;2.95;;;;;;;40.71;27.23;100243.91;1639390;85;21518;-56
2022/06/20 05:57:57;;;;;;;2.52;2.33;;;;;;;40.81;26.58;100232.22;1614709;87;21166;-60
2022/06/20 06:00:33;;;;;;;2.85;2.52;;;;;;;40.58;27.37;100234.53;1638711;87;21078;-56
2022/06/20 06:03:05;;;;;;;5.50;2.80;;;;;;;40.54;27.18;100234.50;1635264;86;21080;-58
2022/06/20 06:05:39;;;;;;;3.98;2.77;;;;;;;40.54;27.55;100223.56;1626933;86;21104;-63
2022/06/20 06:08:32;;;;;;;3.35;2.83;;;;;;;40.57;27.11;100223.38;1635514;86;21493;-57
2022/06/20 06:11:23;;;;;;;6.10;2.90;;;;;;;40.53;27.45;100221.98;1694458;84;21917;-56
2022/06/20 06:14:18;;;;;;;4.03;3.17;;;;;;;40.50;27.08;100213.22;1689640;82;20983;-60
2022/06/20 06:17:13;;;;;;;3.62;2.60;;;;;;;40.59;27.70;100205.44;1691043;82;20987;-56
2022/06/20 06:19:52;;;;;;;3.55;2.70;;;;;;;40.79;26.54;100210.53;1698720;82;21029;-56
2022/06/20 06:22:25;;;;;;;4.03;2.83;;;;;;;40.73;27.06;100204.69;1694986;82;21073;-57
2022/06/20 06:25:03;;;;;;;3.87;3.10;;;;;;;40.67;26.92;100198.03;1696194;84;22350;-56
2022/06/20 06:27:33;;;;;;;5.25;3.50;;;;;;;40.48;27.21;100203.84;1685986;82;21071;-57
2022/06/20 06:30:04;;;;;;;4.78;2.75;;;;;;;40.24;26.96;100204.77;1692338;84;21059;-57
2022/06/20 06:32:45;;;;;;;3.40;2.33;;;;;;;40.14;27.29;100205.51;1689450;84;21594;-57
2022/06/20 06:35:35;;;;;;;4.22;2.90;;;;;;;40.11;27.53;100195.32;1663598;86;21560;-57
2022/06/20 06:38:26;;;;;;;3.98;3.58;;;;;;;40.32;26.98;100198.73;1664231;84;21664;-56
2022/06/20 06:40:56;;;;;;;4.87;3.05;;;;;;;40.21;26.71;100194.61;1659281;84;21072;-65
2022/06/20 06:43:37;;;;;;;3.25;2.27;;;;;;;40.19;27.21;100186.01;1697089;84;21338;-59
2022/06/20 06:46:02;;;;;;;2.90;2.10;;;;;;;40.23;26.42;100180.55;1697527;82;21838;-57
2022/06/20 06:49:10;;;;;;;5.97;2.77;;;;;;;40.12;26.68;100180.52;1698195;84;21727;-64
2022/06/20 06:52:18;;;;;;;4.87;3.27;;;;;;;40.22;26.70;100177.05;1689228;84;21288;-56
2022/06/20 06:54:51;;;;;;;3.62;2.02;;;;;;;40.18;26.16;100178.98;1690944;83;21644;-57
2022/06/20 06:57:33;;;;;;;3.45;2.67;;;;;;;40.21;26.03;100172.77;1696787;84;21080;-58
2022/06/20 07:00:19;;;;;;;3.05;2.30;;;;;;;40.23;24.86;100169.63;1696973;82;21404;-57
2022/06/20 07:02:53;;;;;;;7.60;2.90;;;;;;;40.13;25.44;100170.59;1692050;84;20949;-64
2022/06/20 07:05:31;;;;;;;2.27;1.95;;;;;;;40.21;25.29;100167.30;1698233;84;22173;-58
2022/06/20 07:08:24;;;;;;;3.45;2.40;;;;;;;40.20;24.75;100171.80;1701147;82;22381;-58
2022/06/20 07:10:59;;;;;;;5.30;3.02;;;;;;;40.18;24.33;100161.83;1695694;84;22050;-58
2022/06/20 07:14:05;;;;;;;2.92;2.00;;;;;;;40.18;24.90;100154.41;1666966;85;21145;-57
2022/06/20 07:17:00;;;;;;;3.85;2.10;;;;;;;40.12;24.35;100153.22;1640186;85;22054;-62
2022/06/20 07:19:29;;;;;;;3.25;1.80;;;;;;;39.98;24.16;100148.48;1636154;87;21056;-62
2022/06/20 07:21:56;;;;;;;4.67;1.77;;;;;;;39.71;24.21;100141.77;1667329;85;21145;-55
2022/06/20 07:24:26;;;;;;;2.60;1.72;;;;;;;39.62;24.09;100140.70;1667089;84;21353;-55
2022/06/20 07:27:08;;;;;;;3.00;1.75;;;;;;;39.72;24.59;100141.38;1667859;85;26513;-55
2022/06/20 07:29:39;;;;;;;3.67;1.60;;;;;;;39.97;24.86;100132.48;1667006;85;21146;-57
2022/06/20 07:32:11;;;;;;;3.08;1.82;;;;;;;40.17;23.21;100114.63;1667644;85;21293;-57
2022/06/20 07:34:49;;;;;;;1.62;1.20;;;;;;;39.97;23.38;100128.38;1655288;85;21093;-57
2022/06/20 07:37:23;;;;;;;3.08;1.35;;;;;;;39.94;22.32;100127.81;1657799;84;21104;-60
2022/06/20 07:40:26;;;;;;;2.80;1.62;;;;;;;39.84;23.23;100126.60;1639023;85;22106;-58
2022/06/20 07:43:08;;;;;;;2.08;1.40;;;;;;;39.76;22.73;100127.16;1660754;84;21506;-62
2022/06/20 07:45:38;;;;;;;2.15;1.50;;;;;;;39.48;22.22;100120.20;1666281;84;21130;-58
2022/06/20 07:48:33;;;;;;;2.25;1.47;;;;;;;39.41;22.18;100116.27;1641378;85;21636;-58
2022/06/20 07:51:27;;;;;;;2.70;1.62;;;;;;;39.55;22.70;100110.66;1665455;85;21003;-57
2022/06/20 07:54:08;;;;;;;2.55;1.52;;;;;;;39.59;22.87;100113.63;1645878;84;21094;-58
2022/06/20 07:56:54;;;;;;;1.92;1.30;;;;;;;39.53;23.17;100112.42;1626510;86;21551;-58
2022/06/20 07:59:43;;;;;;;2.20;1.25;;;;;;;39.47;23.42;100100.30;1664971;86;21266;-65
2022/06/20 08:02:27;;;;;;;3.42;2.05;;;;;;;39.53;22.93;100093.91;1660948;86;21468;-58
2022/06/20 08:04:58;;;;;;;2.77;1.60;;;;;;;39.48;23.26;100093.70;1663393;85;21038;-58
2022/06/20 08:07:46;;;;;;;2.05;1.50;;;;;;;39.39;23.74;100096.77;1660392;84;21698;-58
2022/06/20 08:10:34;;;;;;;2.60;1.67;;;;;;;39.48;23.83;100103.84;1661538;84;21058;-56
2022/06/20 08:13:17;;;;;;;3.42;1.30;;;;;;;39.63;22.88;100095.33;1660361;86;21244;-59
2022/06/20 08:15:57;;;;;;;4.50;1.60;;;;;;;39.79;23.57;100085.47;1643728;84;21132;-57
2022/06/20 08:18:24;;;;;;;1.87;1.35;;;;;;;39.97;22.71;100077.88;1661643;86;22212;-58
2022/06/20 08:21:02;;;;;;;2.10;1.60;;;;;;;39.84;22.93;100072.02;1662305;86;21317;-56
2022/06/20 08:23:37;;;;;;;2.42;1.70;;;;;;;39.82;22.47;100079.23;1650814;86;21589;-64
2022/06/20 08:26:08;;;;;;;3.00;1.60;;;;;;;39.71;22.83;100068.88;1660303;84;21181;-64
2022/06/20 08:28:52;;;;;;;4.83;2.00;;;;;;;39.61;22.83;100058.67;1660939;86;21330;-57
2022/06/20 08:31:35;;;;;;;3.02;1.87;;;;;;;39.71;23.05;100068.88;1659405;84;21534;-57
2022/06/20 08:34:23;;;;;;;2.65;1.60;;;;;;;39.60;22.79;100068.03;1657570;86;21073;-58
2022/06/20 08:36:55;;;;;;;2.85;1.72;;;;;;;39.29;23.07;100068.88;1655660;86;21124;-58
2022/06/20 08:39:40;;;;;;;2.87;1.98;;;;;;;39.23;23.00;100060.83;1661248;86;21317;-59
2022/06/20 08:42:24;;;;;;;3.70;1.87;;;;;;;39.29;22.97;100066.74;1658015;86;20962;-57
2022/06/20 08:45:07;;;;;;;2.30;1.57;;;;;;;39.29;23.56;100068.88;1660845;84;21832;-63
2022/06/20 08:48:27;;;;;;;3.70;2.00;;;;;;;39.43;22.88;100061.91;1652391;84;21096;-58
2022/06/20 08:51:16;;;;;;;2.52;1.90;;;;;;;39.44;22.93;100060.74;1583450;90;21859;-57
2022/06/20 08:54:11;;;;;;;3.00;1.85;;;;;;;39.37;23.01;100054.70;1647739;86;21222;-58
2022/06/20 08:56:58;;;;;;;3.50;1.70;;;;;;;39.36;23.35;100051.19;1652193;86;21074;-63
2022/06/20 09:00:06;;;;;;;2.50;1.80;;;;;;;39.55;23.15;100046.00;1660870;84;21081;-58
2022/06/20 09:02:59;;;;;;;3.30;2.17;;;;;;;39.69;23.14;100037.09;1659754;84;21551;-60
2022/06/20 09:05:47;;;;;;;3.08;2.08;;;;;;;39.57;23.11;100038.78;1661859;84;21104;-57
2022/06/20 09:08:29;;;;;;;3.17;1.72;;;;;;;39.49;23.35;100032.53;1634760;86;21168;-56
2022/06/20 09:11:15;;;;;;;3.52;1.98;;;;;;;39.51;23.37;100022.00;1633803;86;21152;-58
2022/06/20 09:14:27;;;;;;;3.75;2.40;;;;;;;39.68;23.16;100027.34;1608539;86;21519;-58
2022/06/20 09:17:17;;;;;;;4.17;2.20;;;;;;;39.75;22.97;100015.68;1633934;86;21535;-62
2022/06/20 09:20:24;;;;;;;3.02;2.00;;;;;;;39.63;22.96;100008.02;1634663;87;21008;-56
2022/06/20 09:23:35;;;;;;;2.58;2.00;;;;;;;39.51;22.81;100004.85;1634420;86;21192;-57
2022/06/20 09:26:26;;;;;;;3.02;2.05;;;;;;;39.33;23.22;99998.00;1629871;86;21567;-56
2022/06/20 09:29:17;;;;;;;3.67;2.17;;;;;;;39.38;23.08;100001.12;1633812;86;21168;-58
2022/06/20 09:32:05;;;;;;;3.00;1.85;;;;;;;39.16;23.21;99993.41;1627939;86;21094;-57
2022/06/20 09:34:57;;;;;;;4.60;2.33;;;;;;;39.21;23.47;99986.02;1582791;87;21539;-65
2022/06/20 09:37:46;;;;;;;3.98;2.10;;;;;;;39.38;23.62;99986.13;1635944;85;21316;-56
2022/06/20 09:40:42;;;;;;;2.92;2.30;;;;;;;39.51;23.24;99981.08;1608938;87;21068;-57
2022/06/20 09:43:29;;;;;;;3.98;2.00;;;;;;;39.63;22.99;99978.02;1618003;87;21094;-56
2022/06/20 09:46:21;;;;;;;3.02;2.37;;;;;;;39.57;23.06;99982.28;1611841;87;21134;-56
2022/06/20 09:49:04;;;;;;;4.17;2.15;;;;;;;39.30;23.18;99972.86;1607390;87;21031;-58
2022/06/20 09:51:48;;;;;;;2.92;2.58;;;;;;;39.05;23.42;99961.23;1628913;85;21445;-56
2022/06/20 09:54:47;;;;;;;4.97;2.10;;;;;;;39.07;23.47;99958.14;1615286;87;21619;-56
2022/06/20 09:57:37;;;;;;;2.80;2.30;;;;;;;39.04;23.84;99963.77;1558990;89;21173;-57
2022/06/20 10:00:33;;;;;;;3.70;2.42;;;;;;;39.12;23.86;99960.48;1555836;90;21091;-60
2022/06/20 10:03:37;;;;;;;4.80;2.20;;;;;;;39.13;23.65;99957.37;1588860;87;22361;-62
2022/06/20 10:06:15;;;;;;;2.80;2.52;;;;;;;39.08;23.35;99956.97;1634499;86;21293;-57
2022/06/20 10:09:07;;;;;;;3.90;2.22;;;;;;;38.95;23.87;99957.91;1652097;85;22377;-57
2022/06/20 10:11:58;;;;;;;4.83;2.17;;;;;;;39.00;24.22;99954.80;1659683;84;21127;-56
2022/06/20 10:14:36;;;;;;;3.67;2.30;;;;;;;39.02;23.74;99942.95;1640344;85;21165;-61
2022/06/20 10:17:28;;;;;;;3.65;2.00;;;;;;;39.01;23.78;99944.67;1622786;87;21423;-57
2022/06/20 10:20:01;;;;;;;5.92;2.47;;;;;;;38.82;23.98;99940.31;1640896;85;22210;-59
2022/06/20 10:22:42;;;;;;;2.65;1.82;;;;;;;38.65;23.93;99940.41;1632053;85;22120;-57
2022/06/20 10:25:35;;;;;;;2.90;2.20;;;;;;;38.23;24.33;99936.22;1636160;85;21475;-63
2022/06/20 10:28:24;;;;;;;4.33;2.15;;;;;;;37.99;24.26;99933.48;1640565;85;21139;-59
2022/06/20 10:31:33;;;;;;;2.35;2.08;;;;;;;37.79;24.45;99934.27;1636483;85;21370;-59
2022/06/20 10:34:26;;;;;;;2.98;2.40;;;;;;;37.82;24.49;99933.52;1635493;85;21178;-58
2022/06/20 10:37:00;;;;;;;3.58;2.45;;;;;;;38.06;24.87;99927.33;1607672;87;22472;-57
2022/06/20 10:39:47;;;;;;;2.55;1.85;;;;;;;37.99;24.55;99921.24;1615332;87;21109;-58
2022/06/20 10:42:51;;;;;;;3.45;2.12;;;;;;;37.98;25.29;99917.74;1583257;87;21555;-58
2022/06/20 10:45:53;;;;;;;2.80;2.00;;;;;;;38.24;24.70;99911.91;1601236;87;21514;-56
2022/06/20 10:49:02;;;;;;;2.72;1.98;;;;;;;38.53;24.12;99914.83;1605570;87;21245;-61
2022/06/20 10:51:56;;;;;;;2.77;2.02;;;;;;;38.50;23.43;99915.61;1630660;85;21108;-56
2022/06/20 10:55:04;;;;;;;2.72;2.12;;;;;;;38.30;23.82;99910.41;1640171;85;21040;-57
2022/06/20 10:57:52;;;;;;;4.25;2.10;;;;;;;37.92;24.57;99910.30;1640407;85;21858;-62
2022/06/20 11:00:22;;;;;;;2.60;2.20;;;;;;;37.72;24.84;99908.36;1640891;85;21180;-58
2022/06/20 11:03:10;;;;;;;3.10;2.20;;;;;;;37.59;24.95;99906.50;1638947;87;21163;-60
2022/06/20 11:05:54;;;;;;;3.10;2.10;;;;;;;37.46;25.06;99903.25;1640142;85;20942;-58
2022/06/20 11:08:38;;;;;;;4.53;1.90;;;;;;;37.56;24.78;99904.53;1646408;85;21159;-61
2022/06/20 11:11:20;;;;;;;2.45;1.70;;;;;;;37.77;24.09;99899.84;1631475;86;21347;-60
2022/06/20 11:14:17;;;;;;;2.85;1.72;;;;;;;37.93;24.18;99898.28;1650449;86;21062;-62
2022/06/20 11:17:17;;;;;;;2.90;2.10;;;;;;;38.09;23.94;99891.20;1643242;86;21938;-58
2022/06/20 11:19:56;;;;;;;2.35;1.60;;;;;;;38.21;24.19;99887.58;1643603;85;21087;-59
2022/06/20 11:22:43;;;;;;;3.70;2.22;;;;;;;38.30;23.95;99881.82;1650929;86;21522;-60
2022/06/20 11:25:33;;;;;;;3.17;1.90;;;;;;;38.16;23.61;99880.36;1647513;86;21110;-63
2022/06/20 11:28:23;;;;;;;;;;;;;;;37.85;23.84;99887.89;1652271;86;21147;-60
2022/06/20 11:31:08;;;;;;;2.25;1.95;;;;;;;37.70;23.91;99889.70;1616863;86;21206;-58
2022/06/20 11:34:01;;;;;;;2.55;1.90;;;;;;;37.71;23.90;99887.77;1641758;86;21111;-62
2022/06/20 11:37:10;;;;;;;3.42;1.85;;;;;;;37.76;23.64;99881.97;1647540;85;21544;-59
2022/06/20 11:39:59;;;;;;;2.80;1.87;;;;;;;37.92;23.33;99881.73;1644267;86;21139;-58
2022/06/20 11:42:56;;;;;;;4.15;2.02;;;;;;;37.84;23.38;99880.86;1649682;86;21024;-58
2022/06/20 11:45:35;;;;;;;4.17;1.82;;;;;;;37.80;23.64;99873.25;1651145;86;21224;-59
2022/06/20 11:48:16;;;;;;;4.62;2.58;;;;;;;37.84;23.30;99865.90;1650412;86;21510;-62
2022/06/20 11:51:07;;;;;;;3.30;2.12;;;;;;;37.71;23.36;99866.00;1651193;86;21876;-61
2022/06/20 11:54:02;;;;;;;2.62;2.02;;;;;;;37.61;24.21;99864.74;1644886;86;21103;-58
2022/06/20 11:56:44;;;;;;;4.12;2.33;;;;;;;37.49;24.35;99869.11;1622883;86;21149;-58
2022/06/20 11:59:33;;;;;;;2.35;1.80;;;;;;;37.48;23.94;99858.81;1618092;86;21889;-65
2022/06/20 12:02:32;;;;;;;3.45;2.20;;;;;;;37.45;24.03;99861.50;1632986;87;21582;-58
2022/06/20 12:05:20;;;;;;;3.52;2.15;;;;;;;37.36;24.37;99858.28;1629445;87;21118;-57
2022/06/20 12:08:21;;;;;;;3.27;2.05;;;;;;;37.20;25.20;99857.94;1655272;86;21110;-57
2022/06/20 12:11:06;;;;;;;2.80;2.37;;;;;;;37.16;25.46;99859.03;1663770;85;21162;-56
2022/06/20 12:14:12;;;;;;;5.15;1.80;;;;;;;37.13;25.45;99851.07;1655402;84;21258;-64
2022/06/20 12:16:54;;;;;;;5.00;1.98;;;;;;;37.19;24.44;99853.64;1690502;84;20893;-59
2022/06/20 12:25:42;;;;;;;2.95;2.02;;;;;;;36.88;24.43;99839.89;1696248;82;21052;-60
2022/06/20 12:28:19;;;;;;;3.83;1.90;;;;;;;36.65;24.51;99833.80;1696887;84;21159;-58
2022/06/20 12:31:02;;;;;;;3.50;2.10;;;;;;;36.54;25.13;99837.16;1697085;84;21043;-57
2022/06/20 12:33:29;;;;;;;2.37;2.10;;;;;;;36.43;25.04;99838.91;1687784;84;21020;-58
2022/06/20 12:36:02;;;;;;;2.58;2.00;;;;;;;36.43;25.61;99836.78;1696816;84;21850;-57
2022/06/20 12:38:43;;;;;;;2.62;1.90;;;;;;;36.49;25.13;99833.41;1687982;84;21112;-57
2022/06/20 12:41:14;;;;;;;2.87;2.00;;;;;;;36.62;25.96;99823.67;1696686;82;21236;-67
2022/06/20 12:43:51;;;;;;;3.65;2.10;;;;;;;36.77;26.08;99822.69;1696970;82;21157;-57